sensor_id;sensor_type;location;lat;lon;timestamp;P1;durP1;ratioP1;P2;durP2;ratioP2
9675;SDS011;4876;42.656;23.292;2022-12-10T00:01:02;23.20;;;10.20;;
9675;SDS011;4876;42.656;23.292;2022-12-10T00:03:30;21.33;;;11.53;;
9675;SDS011;4876;42.656;23.292;2022-12-10T00:05:58;23.80;;;9.93;;
9675;SDS011;4876;42.656;23.292;2022-12-10T00:08:26;25.97;;;10.23;;
9675;SDS011;4876;42.656;23.292;2022-12-10T00:10:53;18.33;;;10.60;;
9675;SDS011;4876;42.656;23.292;2022-12-10T00:13:19;18.27;;;10.37;;
9675;SDS011;4876;42.656;23.292;2022-12-10T00:15:48;28.47;;;13.50;;
9675;SDS011;4876;42.656;23.292;2022-12-10T00:18:14;30.67;;;12.07;;
9675;SDS011;4876;42.656;23.292;2022-12-10T00:20:41;25.40;;;12.37;;
9675;SDS011;4876;42.656;23.292;2022-12-10T00:23:08;30.20;;;12.70;;
9675;SDS011;4876;42.656;23.292;2022-12-10T00:25:35;25.10;;;11.90;;
9675;SDS011;4876;42.656;23.292;2022-12-10T00:28:04;20.93;;;11.03;;
9675;SDS011;4876;42.656;23.292;2022-12-10T00:30:32;20.87;;;10.63;;
9675;SDS011;4876;42.656;23.292;2022-12-10T00:33:01;29.73;;;11.33;;
9675;SDS011;4876;42.656;23.292;2022-12-10T00:35:28;19.70;;;11.90;;
9675;SDS011;4876;42.656;23.292;2022-12-10T00:37:54;24.60;;;11.77;;
9675;SDS011;4876;42.656;23.292;2022-12-10T00:40:21;21.83;;;11.37;;
9675;SDS011;4876;42.656;23.292;2022-12-10T00:42:48;23.07;;;11.47;;
9675;SDS011;4876;42.656;23.292;2022-12-10T00:45:15;32.43;;;10.83;;
9675;SDS011;4876;42.656;23.292;2022-12-10T00:47:41;23.30;;;10.50;;
9675;SDS011;4876;42.656;23.292;2022-12-10T00:50:10;31.67;;;11.50;;
9675;SDS011;4876;42.656;23.292;2022-12-10T00:52:36;24.63;;;10.50;;
9675;SDS011;4876;42.656;23.292;2022-12-10T00:55:03;18.93;;;11.10;;
9675;SDS011;4876;42.656;23.292;2022-12-10T00:57:30;27.70;;;11.33;;
9675;SDS011;4876;42.656;23.292;2022-12-10T00:59:57;26.77;;;11.77;;
9675;SDS011;4876;42.656;23.292;2022-12-10T01:02:24;25.93;;;10.13;;
9675;SDS011;4876;42.656;23.292;2022-12-10T01:04:52;24.93;;;10.37;;
9675;SDS011;4876;42.656;23.292;2022-12-10T01:07:20;27.70;;;10.93;;
9675;SDS011;4876;42.656;23.292;2022-12-10T01:09:47;27.67;;;12.23;;
9675;SDS011;4876;42.656;23.292;2022-12-10T01:12:14;29.30;;;12.03;;
9675;SDS011;4876;42.656;23.292;2022-12-10T01:14:40;25.53;;;12.40;;
9675;SDS011;4876;42.656;23.292;2022-12-10T01:17:07;25.33;;;11.13;;
9675;SDS011;4876;42.656;23.292;2022-12-10T01:19:34;19.60;;;11.23;;
9675;SDS011;4876;42.656;23.292;2022-12-10T01:22:01;20.93;;;10.23;;
9675;SDS011;4876;42.656;23.292;2022-12-10T01:24:30;24.93;;;10.77;;
9675;SDS011;4876;42.656;23.292;2022-12-10T01:26:57;25.50;;;10.40;;
9675;SDS011;4876;42.656;23.292;2022-12-10T01:29:25;30.53;;;10.67;;
9675;SDS011;4876;42.656;23.292;2022-12-10T01:31:53;24.93;;;10.50;;
9675;SDS011;4876;42.656;23.292;2022-12-10T01:34:21;20.53;;;9.63;;
9675;SDS011;4876;42.656;23.292;2022-12-10T01:36:50;21.53;;;10.20;;
9675;SDS011;4876;42.656;23.292;2022-12-10T01:39:19;20.23;;;8.77;;
9675;SDS011;4876;42.656;23.292;2022-12-10T01:41:49;24.10;;;10.70;;
9675;SDS011;4876;42.656;23.292;2022-12-10T01:47:37;20.10;;;7.97;;
9675;SDS011;4876;42.656;23.292;2022-12-10T01:50:04;26.47;;;9.97;;
9675;SDS011;4876;42.656;23.292;2022-12-10T01:52:32;16.37;;;10.13;;
9675;SDS011;4876;42.656;23.292;2022-12-10T01:54:59;20.30;;;9.03;;
9675;SDS011;4876;42.656;23.292;2022-12-10T01:57:27;15.70;;;9.57;;
9675;SDS011;4876;42.656;23.292;2022-12-10T01:59:55;19.50;;;9.67;;
9675;SDS011;4876;42.656;23.292;2022-12-10T02:02:34;24.30;;;10.43;;
9675;SDS011;4876;42.656;23.292;2022-12-10T02:05:17;16.97;;;8.33;;
9675;SDS011;4876;42.656;23.292;2022-12-10T02:07:53;26.23;;;9.90;;
9675;SDS011;4876;42.656;23.292;2022-12-10T02:10:30;17.83;;;8.30;;
9675;SDS011;4876;42.656;23.292;2022-12-10T02:13:08;19.87;;;8.43;;
9675;SDS011;4876;42.656;23.292;2022-12-10T02:15:55;13.80;;;8.30;;
9675;SDS011;4876;42.656;23.292;2022-12-10T02:18:28;22.47;;;9.20;;
9675;SDS011;4876;42.656;23.292;2022-12-10T02:21:00;17.30;;;7.30;;
9675;SDS011;4876;42.656;23.292;2022-12-10T02:23:32;19.57;;;8.53;;
9675;SDS011;4876;42.656;23.292;2022-12-10T02:26:03;16.37;;;7.70;;
9675;SDS011;4876;42.656;23.292;2022-12-10T02:28:39;15.63;;;8.57;;
9675;SDS011;4876;42.656;23.292;2022-12-10T02:31:14;16.00;;;6.63;;
9675;SDS011;4876;42.656;23.292;2022-12-10T02:33:46;18.47;;;7.60;;
9675;SDS011;4876;42.656;23.292;2022-12-10T02:36:16;9.60;;;5.60;;
9675;SDS011;4876;42.656;23.292;2022-12-10T02:38:45;22.60;;;8.40;;
9675;SDS011;4876;42.656;23.292;2022-12-10T02:41:16;26.57;;;8.93;;
9675;SDS011;4876;42.656;23.292;2022-12-10T02:43:46;15.70;;;6.23;;
9675;SDS011;4876;42.656;23.292;2022-12-10T02:46:17;17.40;;;7.30;;
9675;SDS011;4876;42.656;23.292;2022-12-10T02:48:45;15.37;;;7.43;;
9675;SDS011;4876;42.656;23.292;2022-12-10T02:51:14;17.17;;;7.63;;
9675;SDS011;4876;42.656;23.292;2022-12-10T02:53:41;17.80;;;7.57;;
9675;SDS011;4876;42.656;23.292;2022-12-10T02:56:12;18.30;;;8.00;;
9675;SDS011;4876;42.656;23.292;2022-12-10T02:58:47;15.50;;;8.20;;
9675;SDS011;4876;42.656;23.292;2022-12-10T03:01:24;17.77;;;7.43;;
9675;SDS011;4876;42.656;23.292;2022-12-10T03:04:07;16.40;;;6.50;;
9675;SDS011;4876;42.656;23.292;2022-12-10T03:06:49;14.73;;;6.70;;
9675;SDS011;4876;42.656;23.292;2022-12-10T03:09:19;19.03;;;8.20;;
9675;SDS011;4876;42.656;23.292;2022-12-10T03:11:49;16.73;;;7.90;;
9675;SDS011;4876;42.656;23.292;2022-12-10T03:14:24;24.77;;;8.43;;
9675;SDS011;4876;42.656;23.292;2022-12-10T03:16:55;18.03;;;7.07;;
9675;SDS011;4876;42.656;23.292;2022-12-10T03:19:25;16.53;;;7.20;;
9675;SDS011;4876;42.656;23.292;2022-12-10T03:21:57;13.60;;;7.00;;
9675;SDS011;4876;42.656;23.292;2022-12-10T03:24:26;19.77;;;8.00;;
9675;SDS011;4876;42.656;23.292;2022-12-10T03:26:53;13.83;;;6.73;;
9675;SDS011;4876;42.656;23.292;2022-12-10T03:29:24;16.83;;;6.60;;
9675;SDS011;4876;42.656;23.292;2022-12-10T03:31:56;11.40;;;5.50;;
9675;SDS011;4876;42.656;23.292;2022-12-10T03:34:24;12.77;;;6.90;;
9675;SDS011;4876;42.656;23.292;2022-12-10T03:36:51;8.17;;;5.23;;
9675;SDS011;4876;42.656;23.292;2022-12-10T03:39:19;13.83;;;6.67;;
9675;SDS011;4876;42.656;23.292;2022-12-10T03:41:46;9.00;;;5.03;;
9675;SDS011;4876;42.656;23.292;2022-12-10T03:44:13;13.43;;;4.60;;
9675;SDS011;4876;42.656;23.292;2022-12-10T03:46:52;15.60;;;5.30;;
9675;SDS011;4876;42.656;23.292;2022-12-10T03:49:21;8.87;;;4.37;;
9675;SDS011;4876;42.656;23.292;2022-12-10T03:51:47;10.60;;;3.90;;
9675;SDS011;4876;42.656;23.292;2022-12-10T03:54:16;9.23;;;3.40;;
9675;SDS011;4876;42.656;23.292;2022-12-10T03:56:43;21.53;;;6.40;;
9675;SDS011;4876;42.656;23.292;2022-12-10T03:59:10;13.43;;;7.10;;
9675;SDS011;4876;42.656;23.292;2022-12-10T04:01:37;12.50;;;6.90;;
9675;SDS011;4876;42.656;23.292;2022-12-10T04:04:04;19.03;;;7.77;;
9675;SDS011;4876;42.656;23.292;2022-12-10T04:06:32;13.00;;;6.43;;
9675;SDS011;4876;42.656;23.292;2022-12-10T04:08:59;13.93;;;5.93;;
9675;SDS011;4876;42.656;23.292;2022-12-10T04:11:26;19.90;;;6.70;;
9675;SDS011;4876;42.656;23.292;2022-12-10T04:13:53;16.07;;;6.50;;
9675;SDS011;4876;42.656;23.292;2022-12-10T04:16:37;11.57;;;5.97;;
9675;SDS011;4876;42.656;23.292;2022-12-10T04:19:05;13.37;;;6.07;;
9675;SDS011;4876;42.656;23.292;2022-12-10T04:21:35;15.43;;;6.57;;
9675;SDS011;4876;42.656;23.292;2022-12-10T04:24:21;16.30;;;6.73;;
9675;SDS011;4876;42.656;23.292;2022-12-10T04:27:08;11.80;;;6.40;;
9675;SDS011;4876;42.656;23.292;2022-12-10T04:29:38;12.27;;;5.87;;
9675;SDS011;4876;42.656;23.292;2022-12-10T04:32:05;14.60;;;6.60;;
9675;SDS011;4876;42.656;23.292;2022-12-10T04:34:32;13.87;;;6.13;;
9675;SDS011;4876;42.656;23.292;2022-12-10T04:37:00;13.77;;;6.07;;
9675;SDS011;4876;42.656;23.292;2022-12-10T04:39:29;15.63;;;6.10;;
9675;SDS011;4876;42.656;23.292;2022-12-10T04:41:56;21.13;;;6.43;;
9675;SDS011;4876;42.656;23.292;2022-12-10T04:44:23;12.10;;;5.77;;
9675;SDS011;4876;42.656;23.292;2022-12-10T04:46:49;16.17;;;6.60;;
9675;SDS011;4876;42.656;23.292;2022-12-10T04:49:16;12.37;;;5.93;;
9675;SDS011;4876;42.656;23.292;2022-12-10T04:51:44;14.03;;;6.20;;
9675;SDS011;4876;42.656;23.292;2022-12-10T04:54:12;16.47;;;5.43;;
9675;SDS011;4876;42.656;23.292;2022-12-10T04:56:40;8.53;;;6.33;;
9675;SDS011;4876;42.656;23.292;2022-12-10T04:59:07;14.43;;;5.93;;
9675;SDS011;4876;42.656;23.292;2022-12-10T05:01:35;19.00;;;6.77;;
9675;SDS011;4876;42.656;23.292;2022-12-10T05:04:02;16.60;;;5.87;;
9675;SDS011;4876;42.656;23.292;2022-12-10T05:06:31;11.83;;;5.47;;
9675;SDS011;4876;42.656;23.292;2022-12-10T05:08:58;12.73;;;6.03;;
9675;SDS011;4876;42.656;23.292;2022-12-10T05:11:29;14.93;;;6.23;;
9675;SDS011;4876;42.656;23.292;2022-12-10T05:13:57;19.83;;;7.80;;
9675;SDS011;4876;42.656;23.292;2022-12-10T05:16:26;13.00;;;6.20;;
9675;SDS011;4876;42.656;23.292;2022-12-10T05:18:54;11.73;;;6.00;;
9675;SDS011;4876;42.656;23.292;2022-12-10T05:21:21;14.83;;;6.50;;
9675;SDS011;4876;42.656;23.292;2022-12-10T05:23:50;14.63;;;6.50;;
9675;SDS011;4876;42.656;23.292;2022-12-10T05:26:18;13.23;;;6.57;;
9675;SDS011;4876;42.656;23.292;2022-12-10T05:28:47;10.20;;;5.87;;
9675;SDS011;4876;42.656;23.292;2022-12-10T05:31:16;14.70;;;7.07;;
9675;SDS011;4876;42.656;23.292;2022-12-10T05:33:44;14.33;;;6.13;;
9675;SDS011;4876;42.656;23.292;2022-12-10T05:36:12;13.43;;;6.67;;
9675;SDS011;4876;42.656;23.292;2022-12-10T05:38:40;11.87;;;6.87;;
9675;SDS011;4876;42.656;23.292;2022-12-10T05:41:09;17.27;;;6.67;;
9675;SDS011;4876;42.656;23.292;2022-12-10T05:43:38;19.00;;;7.23;;
9675;SDS011;4876;42.656;23.292;2022-12-10T05:46:07;15.40;;;7.03;;
9675;SDS011;4876;42.656;23.292;2022-12-10T05:48:37;14.00;;;7.30;;
9675;SDS011;4876;42.656;23.292;2022-12-10T05:51:04;13.80;;;6.37;;
9675;SDS011;4876;42.656;23.292;2022-12-10T05:53:31;20.93;;;8.20;;
9675;SDS011;4876;42.656;23.292;2022-12-10T05:55:59;17.07;;;8.67;;
9675;SDS011;4876;42.656;23.292;2022-12-10T05:58:27;20.97;;;9.93;;
9675;SDS011;4876;42.656;23.292;2022-12-10T06:00:54;26.50;;;9.80;;
9675;SDS011;4876;42.656;23.292;2022-12-10T06:03:23;13.67;;;7.97;;
9675;SDS011;4876;42.656;23.292;2022-12-10T06:05:52;12.43;;;7.70;;
9675;SDS011;4876;42.656;23.292;2022-12-10T06:08:19;18.33;;;9.07;;
9675;SDS011;4876;42.656;23.292;2022-12-10T06:10:46;15.43;;;7.90;;
9675;SDS011;4876;42.656;23.292;2022-12-10T06:13:12;15.87;;;7.73;;
9675;SDS011;4876;42.656;23.292;2022-12-10T06:15:40;17.53;;;7.63;;
9675;SDS011;4876;42.656;23.292;2022-12-10T06:18:08;15.87;;;7.87;;
9675;SDS011;4876;42.656;23.292;2022-12-10T06:20:38;15.37;;;8.13;;
9675;SDS011;4876;42.656;23.292;2022-12-10T06:23:05;14.47;;;8.83;;
9675;SDS011;4876;42.656;23.292;2022-12-10T06:25:32;23.20;;;10.03;;
9675;SDS011;4876;42.656;23.292;2022-12-10T06:28:00;22.17;;;9.30;;
9675;SDS011;4876;42.656;23.292;2022-12-10T06:30:26;15.13;;;9.40;;
9675;SDS011;4876;42.656;23.292;2022-12-10T06:32:53;12.30;;;8.40;;
9675;SDS011;4876;42.656;23.292;2022-12-10T06:35:20;20.53;;;7.90;;
9675;SDS011;4876;42.656;23.292;2022-12-10T06:37:49;21.60;;;9.07;;
9675;SDS011;4876;42.656;23.292;2022-12-10T06:40:16;28.20;;;10.70;;
9675;SDS011;4876;42.656;23.292;2022-12-10T06:42:43;13.50;;;6.80;;
9675;SDS011;4876;42.656;23.292;2022-12-10T06:45:12;15.90;;;7.33;;
9675;SDS011;4876;42.656;23.292;2022-12-10T06:47:39;28.87;;;7.93;;
9675;SDS011;4876;42.656;23.292;2022-12-10T06:50:06;16.00;;;8.07;;
9675;SDS011;4876;42.656;23.292;2022-12-10T06:52:33;14.47;;;7.07;;
9675;SDS011;4876;42.656;23.292;2022-12-10T06:55:01;15.37;;;7.33;;
9675;SDS011;4876;42.656;23.292;2022-12-10T06:57:28;16.23;;;7.63;;
9675;SDS011;4876;42.656;23.292;2022-12-10T06:59:55;21.60;;;8.57;;
9675;SDS011;4876;42.656;23.292;2022-12-10T07:02:22;16.17;;;8.53;;
9675;SDS011;4876;42.656;23.292;2022-12-10T07:04:48;19.90;;;9.67;;
9675;SDS011;4876;42.656;23.292;2022-12-10T07:07:15;19.60;;;9.40;;
9675;SDS011;4876;42.656;23.292;2022-12-10T07:09:42;14.37;;;8.30;;
9675;SDS011;4876;42.656;23.292;2022-12-10T07:12:10;16.00;;;10.13;;
9675;SDS011;4876;42.656;23.292;2022-12-10T07:14:37;16.30;;;10.13;;
9675;SDS011;4876;42.656;23.292;2022-12-10T07:17:04;17.30;;;9.90;;
9675;SDS011;4876;42.656;23.292;2022-12-10T07:19:31;18.03;;;9.73;;
9675;SDS011;4876;42.656;23.292;2022-12-10T07:21:58;14.30;;;8.87;;
9675;SDS011;4876;42.656;23.292;2022-12-10T07:24:25;18.47;;;9.17;;
9675;SDS011;4876;42.656;23.292;2022-12-10T07:26:52;16.83;;;10.23;;
9675;SDS011;4876;42.656;23.292;2022-12-10T07:29:20;21.50;;;9.77;;
9675;SDS011;4876;42.656;23.292;2022-12-10T07:31:48;15.70;;;8.90;;
9675;SDS011;4876;42.656;23.292;2022-12-10T07:34:15;13.50;;;8.77;;
9675;SDS011;4876;42.656;23.292;2022-12-10T07:36:43;18.90;;;9.23;;
9675;SDS011;4876;42.656;23.292;2022-12-10T07:39:09;24.90;;;10.37;;
9675;SDS011;4876;42.656;23.292;2022-12-10T07:41:42;19.80;;;10.30;;
9675;SDS011;4876;42.656;23.292;2022-12-10T07:44:09;19.00;;;8.80;;
9675;SDS011;4876;42.656;23.292;2022-12-10T07:46:38;19.23;;;10.20;;
9675;SDS011;4876;42.656;23.292;2022-12-10T07:49:05;14.07;;;9.33;;
9675;SDS011;4876;42.656;23.292;2022-12-10T07:51:36;21.83;;;11.07;;
9675;SDS011;4876;42.656;23.292;2022-12-10T07:54:02;26.63;;;10.23;;
9675;SDS011;4876;42.656;23.292;2022-12-10T07:56:29;14.20;;;9.20;;
9675;SDS011;4876;42.656;23.292;2022-12-10T07:58:56;22.30;;;10.80;;
9675;SDS011;4876;42.656;23.292;2022-12-10T08:01:24;23.30;;;11.37;;
9675;SDS011;4876;42.656;23.292;2022-12-10T08:03:53;18.37;;;11.77;;
9675;SDS011;4876;42.656;23.292;2022-12-10T08:06:23;17.80;;;9.63;;
9675;SDS011;4876;42.656;23.292;2022-12-10T08:08:50;25.93;;;10.00;;
9675;SDS011;4876;42.656;23.292;2022-12-10T08:11:18;21.90;;;10.30;;
9675;SDS011;4876;42.656;23.292;2022-12-10T08:13:46;17.83;;;9.77;;
9675;SDS011;4876;42.656;23.292;2022-12-10T08:16:13;18.27;;;9.60;;
9675;SDS011;4876;42.656;23.292;2022-12-10T08:18:42;15.00;;;9.57;;
9675;SDS011;4876;42.656;23.292;2022-12-10T08:21:12;16.23;;;9.57;;
9675;SDS011;4876;42.656;23.292;2022-12-10T08:23:40;17.77;;;9.93;;
9675;SDS011;4876;42.656;23.292;2022-12-10T08:26:08;18.43;;;10.13;;
9675;SDS011;4876;42.656;23.292;2022-12-10T08:28:37;20.77;;;10.07;;
9675;SDS011;4876;42.656;23.292;2022-12-10T08:31:04;15.03;;;9.60;;
9675;SDS011;4876;42.656;23.292;2022-12-10T08:33:33;16.27;;;9.57;;
9675;SDS011;4876;42.656;23.292;2022-12-10T08:36:01;18.57;;;10.70;;
9675;SDS011;4876;42.656;23.292;2022-12-10T08:38:30;22.33;;;10.00;;
9675;SDS011;4876;42.656;23.292;2022-12-10T08:40:57;18.80;;;10.50;;
9675;SDS011;4876;42.656;23.292;2022-12-10T08:43:24;13.23;;;10.30;;
9675;SDS011;4876;42.656;23.292;2022-12-10T08:45:52;18.07;;;10.93;;
9675;SDS011;4876;42.656;23.292;2022-12-10T08:48:20;17.57;;;11.07;;
9675;SDS011;4876;42.656;23.292;2022-12-10T08:50:48;29.93;;;11.57;;
9675;SDS011;4876;42.656;23.292;2022-12-10T08:53:15;18.43;;;10.43;;
9675;SDS011;4876;42.656;23.292;2022-12-10T08:55:44;14.30;;;9.90;;
9675;SDS011;4876;42.656;23.292;2022-12-10T08:58:10;17.50;;;10.93;;
9675;SDS011;4876;42.656;23.292;2022-12-10T09:00:37;18.83;;;11.27;;
9675;SDS011;4876;42.656;23.292;2022-12-10T09:03:04;17.40;;;11.10;;
9675;SDS011;4876;42.656;23.292;2022-12-10T09:05:31;19.27;;;11.83;;
9675;SDS011;4876;42.656;23.292;2022-12-10T09:07:57;17.33;;;11.20;;
9675;SDS011;4876;42.656;23.292;2022-12-10T09:10:24;28.43;;;12.07;;
9675;SDS011;4876;42.656;23.292;2022-12-10T09:12:52;23.50;;;13.07;;
9675;SDS011;4876;42.656;23.292;2022-12-10T09:15:19;20.67;;;12.77;;
9675;SDS011;4876;42.656;23.292;2022-12-10T09:17:46;18.90;;;12.13;;
9675;SDS011;4876;42.656;23.292;2022-12-10T09:20:13;20.27;;;12.00;;
9675;SDS011;4876;42.656;23.292;2022-12-10T09:22:51;18.10;;;11.17;;
9675;SDS011;4876;42.656;23.292;2022-12-10T09:25:18;22.37;;;13.03;;
9675;SDS011;4876;42.656;23.292;2022-12-10T09:27:46;20.27;;;12.77;;
9675;SDS011;4876;42.656;23.292;2022-12-10T09:30:15;16.60;;;10.20;;
9675;SDS011;4876;42.656;23.292;2022-12-10T09:32:42;19.70;;;13.30;;
9675;SDS011;4876;42.656;23.292;2022-12-10T09:35:10;20.67;;;13.03;;
9675;SDS011;4876;42.656;23.292;2022-12-10T09:37:37;22.83;;;12.30;;
9675;SDS011;4876;42.656;23.292;2022-12-10T09:40:04;21.80;;;12.83;;
9675;SDS011;4876;42.656;23.292;2022-12-10T09:42:34;20.07;;;12.90;;
9675;SDS011;4876;42.656;23.292;2022-12-10T09:45:12;20.00;;;13.27;;
9675;SDS011;4876;42.656;23.292;2022-12-10T09:47:46;27.10;;;14.70;;
9675;SDS011;4876;42.656;23.292;2022-12-10T09:50:23;24.10;;;14.33;;
9675;SDS011;4876;42.656;23.292;2022-12-10T09:52:54;18.27;;;13.80;;
9675;SDS011;4876;42.656;23.292;2022-12-10T09:55:26;26.23;;;14.27;;
9675;SDS011;4876;42.656;23.292;2022-12-10T09:57:59;23.73;;;13.67;;
9675;SDS011;4876;42.656;23.292;2022-12-10T10:00:32;25.17;;;14.80;;
9675;SDS011;4876;42.656;23.292;2022-12-10T10:03:01;18.73;;;11.70;;
9675;SDS011;4876;42.656;23.292;2022-12-10T10:05:30;18.27;;;10.50;;
9675;SDS011;4876;42.656;23.292;2022-12-10T10:07:59;13.97;;;10.90;;
9675;SDS011;4876;42.656;23.292;2022-12-10T10:10:30;21.87;;;10.87;;
9675;SDS011;4876;42.656;23.292;2022-12-10T10:12:59;18.50;;;11.30;;
9675;SDS011;4876;42.656;23.292;2022-12-10T10:15:39;17.20;;;11.83;;
9675;SDS011;4876;42.656;23.292;2022-12-10T10:18:09;20.67;;;12.07;;
9675;SDS011;4876;42.656;23.292;2022-12-10T10:20:42;19.13;;;12.13;;
9675;SDS011;4876;42.656;23.292;2022-12-10T10:23:09;14.40;;;11.87;;
9675;SDS011;4876;42.656;23.292;2022-12-10T10:25:39;21.50;;;11.80;;
9675;SDS011;4876;42.656;23.292;2022-12-10T10:28:09;20.43;;;11.30;;
9675;SDS011;4876;42.656;23.292;2022-12-10T10:30:39;20.23;;;10.53;;
9675;SDS011;4876;42.656;23.292;2022-12-10T10:33:09;22.80;;;11.07;;
9675;SDS011;4876;42.656;23.292;2022-12-10T10:35:42;20.53;;;11.90;;
9675;SDS011;4876;42.656;23.292;2022-12-10T10:38:13;18.87;;;11.53;;
9675;SDS011;4876;42.656;23.292;2022-12-10T10:40:45;19.53;;;9.97;;
9675;SDS011;4876;42.656;23.292;2022-12-10T10:43:17;14.73;;;9.27;;
9675;SDS011;4876;42.656;23.292;2022-12-10T10:45:49;14.10;;;8.13;;
9675;SDS011;4876;42.656;23.292;2022-12-10T10:48:18;17.77;;;8.60;;
9675;SDS011;4876;42.656;23.292;2022-12-10T10:50:48;15.73;;;8.33;;
9675;SDS011;4876;42.656;23.292;2022-12-10T10:53:23;12.93;;;8.53;;
9675;SDS011;4876;42.656;23.292;2022-12-10T10:56:06;13.97;;;8.60;;
9675;SDS011;4876;42.656;23.292;2022-12-10T10:58:36;18.87;;;9.30;;
9675;SDS011;4876;42.656;23.292;2022-12-10T11:01:15;17.23;;;9.97;;
9675;SDS011;4876;42.656;23.292;2022-12-10T11:03:45;15.67;;;10.43;;
9675;SDS011;4876;42.656;23.292;2022-12-10T11:06:13;14.50;;;8.67;;
9675;SDS011;4876;42.656;23.292;2022-12-10T11:08:41;15.30;;;9.23;;
9675;SDS011;4876;42.656;23.292;2022-12-10T11:11:11;16.73;;;9.50;;
9675;SDS011;4876;42.656;23.292;2022-12-10T11:13:43;15.77;;;9.27;;
9675;SDS011;4876;42.656;23.292;2022-12-10T11:16:11;12.90;;;9.20;;
9675;SDS011;4876;42.656;23.292;2022-12-10T11:18:51;17.30;;;9.90;;
9675;SDS011;4876;42.656;23.292;2022-12-10T11:21:21;13.73;;;8.53;;
9675;SDS011;4876;42.656;23.292;2022-12-10T11:23:49;15.77;;;8.37;;
9675;SDS011;4876;42.656;23.292;2022-12-10T11:26:29;19.57;;;10.37;;
9675;SDS011;4876;42.656;23.292;2022-12-10T11:29:10;15.80;;;8.43;;
9675;SDS011;4876;42.656;23.292;2022-12-10T11:31:47;15.03;;;8.77;;
9675;SDS011;4876;42.656;23.292;2022-12-10T11:34:29;17.13;;;10.60;;
9675;SDS011;4876;42.656;23.292;2022-12-10T11:37:08;18.07;;;9.63;;
9675;SDS011;4876;42.656;23.292;2022-12-10T11:39:48;17.57;;;10.03;;
9675;SDS011;4876;42.656;23.292;2022-12-10T11:42:30;15.63;;;9.20;;
9675;SDS011;4876;42.656;23.292;2022-12-10T11:45:07;14.87;;;9.03;;
9675;SDS011;4876;42.656;23.292;2022-12-10T11:47:46;10.77;;;5.97;;
9675;SDS011;4876;42.656;23.292;2022-12-10T11:50:26;14.37;;;7.20;;
9675;SDS011;4876;42.656;23.292;2022-12-10T11:53:06;14.97;;;6.33;;
9675;SDS011;4876;42.656;23.292;2022-12-10T11:55:54;13.50;;;6.73;;
9675;SDS011;4876;42.656;23.292;2022-12-10T11:58:36;14.63;;;7.53;;
9675;SDS011;4876;42.656;23.292;2022-12-10T12:01:17;16.67;;;7.80;;
9675;SDS011;4876;42.656;23.292;2022-12-10T12:04:00;18.37;;;7.80;;
9675;SDS011;4876;42.656;23.292;2022-12-10T12:06:57;15.23;;;6.90;;
9675;SDS011;4876;42.656;23.292;2022-12-10T12:09:40;12.53;;;6.60;;
9675;SDS011;4876;42.656;23.292;2022-12-10T12:12:23;19.47;;;6.20;;
9675;SDS011;4876;42.656;23.292;2022-12-10T12:15:00;11.87;;;6.50;;
9675;SDS011;4876;42.656;23.292;2022-12-10T12:17:30;14.27;;;6.93;;
9675;SDS011;4876;42.656;23.292;2022-12-10T12:20:00;9.60;;;5.57;;
9675;SDS011;4876;42.656;23.292;2022-12-10T12:22:32;13.83;;;8.70;;
9675;SDS011;4876;42.656;23.292;2022-12-10T12:25:05;11.23;;;6.53;;
9675;SDS011;4876;42.656;23.292;2022-12-10T12:27:38;13.57;;;8.55;;
9675;SDS011;4876;42.656;23.292;2022-12-10T12:30:12;12.37;;;6.77;;
9675;SDS011;4876;42.656;23.292;2022-12-10T12:32:45;14.53;;;7.90;;
9675;SDS011;4876;42.656;23.292;2022-12-10T12:35:19;17.10;;;7.63;;
9675;SDS011;4876;42.656;23.292;2022-12-10T12:37:50;13.93;;;7.37;;
9675;SDS011;4876;42.656;23.292;2022-12-10T12:40:25;21.23;;;8.40;;
9675;SDS011;4876;42.656;23.292;2022-12-10T12:42:56;15.43;;;8.20;;
9675;SDS011;4876;42.656;23.292;2022-12-10T12:45:30;14.20;;;8.40;;
9675;SDS011;4876;42.656;23.292;2022-12-10T12:48:04;15.70;;;8.60;;
9675;SDS011;4876;42.656;23.292;2022-12-10T12:50:42;19.23;;;8.50;;
9675;SDS011;4876;42.656;23.292;2022-12-10T12:53:13;24.27;;;8.33;;
9675;SDS011;4876;42.656;23.292;2022-12-10T12:55:45;15.93;;;8.57;;
9675;SDS011;4876;42.656;23.292;2022-12-10T12:58:21;14.87;;;8.10;;
9675;SDS011;4876;42.656;23.292;2022-12-10T13:00:54;24.50;;;8.73;;
9675;SDS011;4876;42.656;23.292;2022-12-10T13:03:27;22.37;;;7.93;;
9675;SDS011;4876;42.656;23.292;2022-12-10T13:06:11;15.03;;;8.17;;
9675;SDS011;4876;42.656;23.292;2022-12-10T13:08:44;19.40;;;9.23;;
9675;SDS011;4876;42.656;23.292;2022-12-10T13:11:28;17.00;;;10.30;;
9675;SDS011;4876;42.656;23.292;2022-12-10T13:14:13;25.33;;;9.67;;
9675;SDS011;4876;42.656;23.292;2022-12-10T13:17:01;19.27;;;8.67;;
9675;SDS011;4876;42.656;23.292;2022-12-10T13:19:34;11.93;;;7.80;;
9675;SDS011;4876;42.656;23.292;2022-12-10T13:22:05;19.80;;;8.70;;
9675;SDS011;4876;42.656;23.292;2022-12-10T13:27:38;21.17;;;10.07;;
9675;SDS011;4876;42.656;23.292;2022-12-10T13:30:26;25.40;;;10.27;;
9675;SDS011;4876;42.656;23.292;2022-12-10T13:33:03;23.53;;;10.30;;
9675;SDS011;4876;42.656;23.292;2022-12-10T13:35:42;17.77;;;8.93;;
9675;SDS011;4876;42.656;23.292;2022-12-10T13:38:18;17.07;;;8.33;;
9675;SDS011;4876;42.656;23.292;2022-12-10T13:40:56;20.27;;;8.97;;
9675;SDS011;4876;42.656;23.292;2022-12-10T13:43:44;21.00;;;9.77;;
9675;SDS011;4876;42.656;23.292;2022-12-10T13:46:49;22.43;;;9.73;;
9675;SDS011;4876;42.656;23.292;2022-12-10T13:49:22;17.23;;;9.87;;
9675;SDS011;4876;42.656;23.292;2022-12-10T13:51:54;16.53;;;9.03;;
9675;SDS011;4876;42.656;23.292;2022-12-10T13:54:28;20.53;;;9.67;;
9675;SDS011;4876;42.656;23.292;2022-12-10T13:57:16;19.93;;;9.60;;
9675;SDS011;4876;42.656;23.292;2022-12-10T13:59:54;20.17;;;9.40;;
9675;SDS011;4876;42.656;23.292;2022-12-10T14:02:37;22.20;;;9.47;;
9675;SDS011;4876;42.656;23.292;2022-12-10T14:05:19;24.47;;;9.07;;
9675;SDS011;4876;42.656;23.292;2022-12-10T14:07:54;22.93;;;9.13;;
9675;SDS011;4876;42.656;23.292;2022-12-10T14:10:27;24.20;;;10.20;;
9675;SDS011;4876;42.656;23.292;2022-12-10T14:12:57;20.67;;;9.57;;
9675;SDS011;4876;42.656;23.292;2022-12-10T14:15:27;23.23;;;9.33;;
9675;SDS011;4876;42.656;23.292;2022-12-10T14:17:57;26.20;;;8.97;;
9675;SDS011;4876;42.656;23.292;2022-12-10T14:20:28;24.13;;;8.80;;
9675;SDS011;4876;42.656;23.292;2022-12-10T14:22:57;18.93;;;7.57;;
9675;SDS011;4876;42.656;23.292;2022-12-10T14:25:44;15.00;;;6.97;;
9675;SDS011;4876;42.656;23.292;2022-12-10T14:28:13;31.17;;;11.07;;
9675;SDS011;4876;42.656;23.292;2022-12-10T14:30:43;32.07;;;12.67;;
9675;SDS011;4876;42.656;23.292;2022-12-10T14:33:12;12.53;;;6.30;;
9675;SDS011;4876;42.656;23.292;2022-12-10T14:35:42;13.23;;;5.70;;
9675;SDS011;4876;42.656;23.292;2022-12-10T14:38:16;19.17;;;8.37;;
9675;SDS011;4876;42.656;23.292;2022-12-10T14:40:46;17.00;;;7.87;;
9675;SDS011;4876;42.656;23.292;2022-12-10T14:43:14;15.57;;;8.03;;
9675;SDS011;4876;42.656;23.292;2022-12-10T14:45:46;16.03;;;8.37;;
9675;SDS011;4876;42.656;23.292;2022-12-10T14:48:16;25.60;;;9.80;;
9675;SDS011;4876;42.656;23.292;2022-12-10T14:50:43;18.70;;;8.90;;
9675;SDS011;4876;42.656;23.292;2022-12-10T14:53:11;15.23;;;9.07;;
9675;SDS011;4876;42.656;23.292;2022-12-10T14:55:41;17.53;;;9.00;;
9675;SDS011;4876;42.656;23.292;2022-12-10T14:58:10;24.17;;;9.00;;
9675;SDS011;4876;42.656;23.292;2022-12-10T15:00:43;35.73;;;13.83;;
9675;SDS011;4876;42.656;23.292;2022-12-10T15:03:17;23.37;;;11.67;;
9675;SDS011;4876;42.656;23.292;2022-12-10T15:05:53;46.47;;;18.87;;
9675;SDS011;4876;42.656;23.292;2022-12-10T15:08:21;27.83;;;14.03;;
9675;SDS011;4876;42.656;23.292;2022-12-10T15:10:50;30.17;;;13.60;;